CER5 weather

CLOSED Conklin Airport
Conklin, Alberta, Canada

Public forecast

Using degrees Celsius for public forecast. Weather courtesy of forecast.io.

METAR (pilot weather report)

Closest report is Fort McMurray Airport, 61.3 nm (113.6 km) N. Retrieved 2019/05/26 16:00 UTC (32 minutes ago):

CYMM 261600Z AUTO 23003KT 150V270 9SM CLR 14/M06 A3014 RMK SLP218

TAF (pilot weather forecast)

Closest forecast is Fort McMurray Airport, 61.3 nm (113.6 km) N. Retrieved 2019/05/26 13:39 UTC (3 hours ago):

TAF CYMM 261238Z 2613/2701 13005KT P6SM SKC BECMG 2616/2618 25012KT RMK FCST BASED ON AUTO OBS. NXT FCST BY 261900Z